createdAt,value
2022-09-09T00:00:23.213Z,75.70
2022-09-09T00:02:55.484Z,75.80
2022-09-09T00:05:31.107Z,75.80
2022-09-09T00:08:02.121Z,76.00
2022-09-09T00:10:31.690Z,76.10
2022-09-09T00:13:01.856Z,76.40
2022-09-09T00:15:31.909Z,76.60
2022-09-09T00:18:01.746Z,76.90
2022-09-09T00:20:31.830Z,77.00
2022-09-09T00:23:02.906Z,77.20
2022-09-09T00:25:35.144Z,77.40
2022-09-09T00:28:03.219Z,77.60
2022-09-09T00:30:33.969Z,77.70
2022-09-09T00:33:03.755Z,78.00
2022-09-09T00:35:33.684Z,78.10
2022-09-09T00:38:06.316Z,78.10
2022-09-09T00:40:35.206Z,78.20
2022-09-09T00:43:12.241Z,78.20
2022-09-09T00:45:53.305Z,78.20
2022-09-09T00:48:22.419Z,78.20
2022-09-09T00:50:56.281Z,78.20
2022-09-09T00:53:34.731Z,78.30
2022-09-09T00:56:07.094Z,78.40
2022-09-09T00:58:35.088Z,78.40
2022-09-09T01:01:07.643Z,78.50
2022-09-09T01:03:36.980Z,78.60
2022-09-09T01:06:14.183Z,78.60
2022-09-09T01:08:52.294Z,78.60
2022-09-09T01:11:23.379Z,78.50
2022-09-09T01:13:55.600Z,78.40
2022-09-09T01:16:23.654Z,78.20
2022-09-09T01:18:53.925Z,78.20
2022-09-09T01:21:29.970Z,78.40
2022-09-09T01:24:07.824Z,78.40
2022-09-09T01:26:51.823Z,78.40
2022-09-09T01:29:26.525Z,78.60
2022-09-09T01:31:55.779Z,78.60
2022-09-09T01:34:24.915Z,78.70
2022-09-09T01:36:55.734Z,78.80
2022-09-09T01:39:23.696Z,78.70
2022-09-09T01:42:01.376Z,78.70
2022-09-09T01:44:29.890Z,78.70
2022-09-09T01:46:57.760Z,78.70
2022-09-09T01:49:25.571Z,78.70
2022-09-09T01:51:54.153Z,78.70
2022-09-09T01:54:30.012Z,78.70
2022-09-09T01:57:07.929Z,78.80
2022-09-09T01:59:47.212Z,78.80
2022-09-09T02:02:19.325Z,78.80
2022-09-09T02:04:58.788Z,78.80
2022-09-09T02:07:32.818Z,78.80
2022-09-09T02:10:05.463Z,78.80
2022-09-09T02:12:34.830Z,78.80
2022-09-09T02:15:05.892Z,78.80
2022-09-09T02:17:43.735Z,78.70
2022-09-09T02:20:17.808Z,78.70
2022-09-09T02:22:54.322Z,78.70
2022-09-09T02:25:26.188Z,78.70
2022-09-09T02:27:59.718Z,78.60
2022-09-09T02:30:29.683Z,78.40
2022-09-09T02:33:02.435Z,78.30
2022-09-09T02:35:45.623Z,78.20
2022-09-09T02:38:17.202Z,78.00
2022-09-09T02:40:55.980Z,78.00
2022-09-09T02:43:25.979Z,77.90
2022-09-09T02:45:59.858Z,77.90
2022-09-09T02:48:30.838Z,77.90
2022-09-09T02:51:02.038Z,77.60
2022-09-09T02:53:38.691Z,77.40
2022-09-09T02:56:10.172Z,77.30
2022-09-09T02:58:44.156Z,77.10
2022-09-09T03:01:12.078Z,77.10
2022-09-09T03:03:42.424Z,77.10
2022-09-09T03:06:15.400Z,77.10
2022-09-09T03:08:49.453Z,77.00
2022-09-09T03:11:21.216Z,77.10
2022-09-09T03:13:50.854Z,77.40
2022-09-09T03:16:19.030Z,77.50
2022-09-09T03:18:50.628Z,77.60
2022-09-09T03:21:18.639Z,77.50
2022-09-09T03:23:47.077Z,77.70
2022-09-09T03:26:16.042Z,77.80
2022-09-09T03:28:47.029Z,78.10
2022-09-09T03:31:20.305Z,78.20
2022-09-09T03:33:48.811Z,78.20
2022-09-09T03:36:18.233Z,78.30
2022-09-09T03:38:46.361Z,78.40
2022-09-09T03:41:14.498Z,78.40
2022-09-09T03:43:42.834Z,78.50
2022-09-09T03:46:10.813Z,78.50
2022-09-09T03:48:40.554Z,78.50
2022-09-09T03:51:08.444Z,78.50
2022-09-09T03:53:37.778Z,78.50
2022-09-09T03:56:07.581Z,78.70
2022-09-09T03:58:36.108Z,78.90
2022-09-09T04:01:10.043Z,79.10
2022-09-09T04:03:40.470Z,79.30
2022-09-09T04:06:10.585Z,79.50
2022-09-09T04:08:39.492Z,79.70
2022-09-09T04:11:08.484Z,79.70
2022-09-09T04:13:38.588Z,79.80
2022-09-09T04:16:07.063Z,80.10
2022-09-09T04:18:36.801Z,80.30
2022-09-09T04:21:07.514Z,80.30
2022-09-09T04:23:37.047Z,80.30
2022-09-09T04:26:06.474Z,80.30
2022-09-09T04:28:36.396Z,80.30
2022-09-09T04:31:06.965Z,80.20
2022-09-09T04:33:39.920Z,80.00
2022-09-09T04:36:10.288Z,79.90
2022-09-09T04:38:38.844Z,79.80
2022-09-09T04:41:06.853Z,79.60
2022-09-09T04:43:36.153Z,79.50
2022-09-09T04:46:06.568Z,79.50
2022-09-09T04:48:34.567Z,79.50
2022-09-09T04:51:05.218Z,79.50
2022-09-09T04:53:36.025Z,79.70
2022-09-09T04:56:05.333Z,79.80
2022-09-09T04:58:37.069Z,80.00
2022-09-09T05:01:07.842Z,80.20
2022-09-09T05:03:36.344Z,80.40
2022-09-09T05:06:07.345Z,80.50
2022-09-09T05:08:36.851Z,80.60
2022-09-09T05:11:05.115Z,80.70
2022-09-09T05:13:33.525Z,80.70
2022-09-09T05:16:01.810Z,80.60
2022-09-09T05:18:29.980Z,80.50
2022-09-09T05:21:02.812Z,80.30
2022-09-09T05:23:32.114Z,79.90
2022-09-09T05:26:03.059Z,79.70
2022-09-09T05:28:31.720Z,79.20
2022-09-09T05:31:01.411Z,79.00
2022-09-09T05:33:31.742Z,79.20
2022-09-09T05:36:00.494Z,79.40
2022-09-09T05:38:28.933Z,79.60
2022-09-09T05:40:58.071Z,79.70
2022-09-09T05:43:28.130Z,79.60
2022-09-09T05:46:02.058Z,79.70
2022-09-09T05:48:30.361Z,79.80
2022-09-09T05:50:58.469Z,79.80
2022-09-09T05:53:26.611Z,79.90
2022-09-09T05:56:00.417Z,79.90
2022-09-09T05:58:30.074Z,80.00
2022-09-09T06:01:05.298Z,80.20
2022-09-09T06:03:33.752Z,80.10
2022-09-09T06:06:02.608Z,79.90
2022-09-09T06:08:30.604Z,79.00
2022-09-09T06:11:03.599Z,77.80
2022-09-09T06:13:33.410Z,76.90
2022-09-09T06:16:01.613Z,76.00
2022-09-09T06:18:30.566Z,75.00
2022-09-09T06:20:58.925Z,74.50
2022-09-09T06:23:27.557Z,74.00
2022-09-09T06:26:02.573Z,74.40
2022-09-09T06:28:30.950Z,74.50
2022-09-09T06:31:04.773Z,73.40
2022-09-09T06:33:33.503Z,73.00
2022-09-09T06:36:01.678Z,72.90
2022-09-09T06:38:30.044Z,72.90
2022-09-09T06:40:59.444Z,73.50
2022-09-09T06:43:27.559Z,73.50
2022-09-09T06:45:57.519Z,73.50
2022-09-09T06:48:28.830Z,73.90
2022-09-09T06:51:03.588Z,74.40
2022-09-09T06:53:32.148Z,74.70
2022-09-09T06:56:00.473Z,74.50
2022-09-09T06:58:28.324Z,74.60
2022-09-09T07:01:03.734Z,74.50
2022-09-09T07:03:33.199Z,74.80
2022-09-09T07:06:02.713Z,75.30
2022-09-09T07:08:32.231Z,75.60
2022-09-09T07:11:07.984Z,76.00
2022-09-09T07:13:39.252Z,76.20
2022-09-09T07:16:09.254Z,76.20
2022-09-09T07:18:38.712Z,76.20
2022-09-09T07:21:07.595Z,76.30
2022-09-09T07:23:36.636Z,76.40
2022-09-09T07:26:09.322Z,76.40
2022-09-09T07:28:37.662Z,76.40
2022-09-09T07:31:07.188Z,76.10
2022-09-09T07:33:38.059Z,76.20
2022-09-09T07:36:08.047Z,76.40
2022-09-09T07:38:39.983Z,76.10
2022-09-09T07:41:10.215Z,76.00
2022-09-09T07:43:38.388Z,76.00
2022-09-09T07:46:06.989Z,75.60
2022-09-09T07:48:35.548Z,75.50
2022-09-09T07:51:09.923Z,75.40
2022-09-09T07:53:39.266Z,75.20
2022-09-09T07:56:10.140Z,75.00
2022-09-09T07:58:38.710Z,74.70
2022-09-09T08:01:11.155Z,74.40
2022-09-09T08:03:39.200Z,74.00
2022-09-09T08:06:08.950Z,73.80
2022-09-09T08:08:39.611Z,72.70
2022-09-09T08:11:09.979Z,72.10
2022-09-09T08:13:38.300Z,71.50
2022-09-09T08:16:08.050Z,71.30
2022-09-09T08:18:36.042Z,71.20
2022-09-09T08:21:07.511Z,71.10
2022-09-09T08:23:36.130Z,71.20
2022-09-09T08:26:11.370Z,70.50
2022-09-09T08:28:40.513Z,70.50
2022-09-09T08:31:12.927Z,70.40
2022-09-09T08:33:42.364Z,70.50
2022-09-09T08:36:11.966Z,70.70
2022-09-09T08:38:40.159Z,70.50
2022-09-09T08:41:32.147Z,70.60
2022-09-09T08:44:07.838Z,70.80
2022-09-09T08:46:39.269Z,70.60
2022-09-09T08:49:15.479Z,70.50
2022-09-09T08:51:44.356Z,70.50
2022-09-09T08:54:12.558Z,70.40
2022-09-09T08:56:40.909Z,70.90
2022-09-09T08:59:13.438Z,71.20
2022-09-09T09:01:52.129Z,71.10
2022-09-09T09:04:32.530Z,70.20
2022-09-09T09:07:06.542Z,69.50
2022-09-09T09:09:40.252Z,69.30
2022-09-09T09:12:17.107Z,69.30
2022-09-09T09:14:48.507Z,69.50
2022-09-09T09:17:20.045Z,69.60
2022-09-09T09:19:50.540Z,69.40
2022-09-09T09:22:21.059Z,69.60
2022-09-09T09:24:53.429Z,70.00
2022-09-09T09:27:29.612Z,70.30
2022-09-09T09:30:23.875Z,71.40
2022-09-09T09:32:53.800Z,73.60
2022-09-09T09:35:22.003Z,75.20
2022-09-09T09:40:38.344Z,71.10
2022-09-09T09:43:09.639Z,68.60
2022-09-09T09:45:55.183Z,68.50
2022-09-09T09:48:34.669Z,68.40
2022-09-09T09:51:11.458Z,68.80
2022-09-09T09:53:40.701Z,70.80
2022-09-09T09:56:12.354Z,70.60
2022-09-09T09:58:52.201Z,73.70
2022-09-09T10:01:26.526Z,76.00
2022-09-09T10:03:54.934Z,74.80
2022-09-09T10:06:31.625Z,74.10
2022-09-09T10:09:00.216Z,74.40
2022-09-09T10:11:32.472Z,74.80
2022-09-09T10:14:05.655Z,71.90
2022-09-09T10:16:45.764Z,72.00
2022-09-09T10:19:17.227Z,72.60
2022-09-09T10:21:59.796Z,70.70
2022-09-09T10:24:38.433Z,68.10
2022-09-09T10:27:12.868Z,66.70
2022-09-09T10:29:48.751Z,65.20
2022-09-09T10:32:33.982Z,64.30
2022-09-09T10:35:06.588Z,62.50
2022-09-09T10:37:44.493Z,61.30
2022-09-09T10:40:22.026Z,62.60
2022-09-09T10:42:50.070Z,61.80
2022-09-09T10:45:20.271Z,59.60
2022-09-09T10:48:11.538Z,58.10
2022-09-09T10:51:05.193Z,57.30
2022-09-09T10:53:46.871Z,57.50
2022-09-09T10:56:17.831Z,57.00
2022-09-09T10:58:48.752Z,56.20
2022-09-09T11:01:19.901Z,57.30
2022-09-09T11:03:51.441Z,55.20
2022-09-09T11:06:21.166Z,52.40
2022-09-09T11:08:52.724Z,57.10
2022-09-09T11:11:27.782Z,58.40
2022-09-09T11:13:57.894Z,61.20
2022-09-09T11:16:28.351Z,59.30
2022-09-09T11:19:01.728Z,58.20
2022-09-09T11:21:31.977Z,59.00
2022-09-09T11:24:01.703Z,58.70
2022-09-09T11:26:33.129Z,56.10
2022-09-09T11:29:10.527Z,54.90
2022-09-09T11:31:46.580Z,56.10
2022-09-09T11:34:23.390Z,57.30
2022-09-09T11:36:57.130Z,60.10
2022-09-09T11:39:40.643Z,60.10
2022-09-09T11:42:09.479Z,59.60
2022-09-09T11:47:27.567Z,61.70
2022-09-09T11:49:56.970Z,62.50
2022-09-09T11:52:27.713Z,64.40
2022-09-09T11:54:57.012Z,63.50
2022-09-09T11:57:32.551Z,63.20
2022-09-09T12:00:00.998Z,63.00
2022-09-09T12:02:31.971Z,64.00
2022-09-09T12:05:06.427Z,62.40
2022-09-09T12:07:36.493Z,60.60
2022-09-09T12:10:06.293Z,61.60
2022-09-09T12:12:34.995Z,63.00
2022-09-09T12:15:05.403Z,63.90
2022-09-09T12:17:34.280Z,63.80
2022-09-09T12:20:07.114Z,63.80
2022-09-09T12:22:40.146Z,63.50
2022-09-09T12:25:14.771Z,64.00
2022-09-09T12:27:46.733Z,63.90
2022-09-09T12:30:16.746Z,64.50
2022-09-09T12:32:45.537Z,64.40
2022-09-09T12:35:20.519Z,64.00
2022-09-09T12:37:49.719Z,65.50
2022-09-09T12:40:21.911Z,67.70
2022-09-09T12:42:49.810Z,69.10
2022-09-09T12:45:18.869Z,70.20
2022-09-09T12:47:48.122Z,70.70
2022-09-09T12:50:22.690Z,69.50
2022-09-09T12:52:52.004Z,68.60
2022-09-09T12:55:22.679Z,67.40
2022-09-09T12:57:52.651Z,66.90
2022-09-09T13:00:23.535Z,65.10
2022-09-09T13:02:52.891Z,64.50
2022-09-09T13:05:24.425Z,64.40
2022-09-09T13:07:52.702Z,66.30
2022-09-09T13:10:36.891Z,64.70
2022-09-09T13:13:16.404Z,66.40
2022-09-09T13:15:50.466Z,68.50
2022-09-09T13:18:19.981Z,68.20
2022-09-09T13:20:50.135Z,67.20
2022-09-09T13:23:20.649Z,66.60
2022-09-09T13:25:58.538Z,65.30
2022-09-09T13:28:27.506Z,65.30
2022-09-09T13:31:03.587Z,65.40
2022-09-09T13:33:33.207Z,65.10
2022-09-09T13:36:04.839Z,65.90
2022-09-09T13:38:35.203Z,66.10
2022-09-09T13:41:05.300Z,65.80
2022-09-09T13:43:35.794Z,65.90
2022-09-09T13:46:04.824Z,64.70
2022-09-09T13:48:33.039Z,63.40
2022-09-09T13:51:04.060Z,60.50
2022-09-09T13:53:32.071Z,58.00
2022-09-09T13:56:00.547Z,57.40
2022-09-09T13:58:28.421Z,56.40
2022-09-09T14:00:58.381Z,57.70
2022-09-09T14:03:26.343Z,59.60
2022-09-09T14:05:55.534Z,59.40
2022-09-09T14:08:26.068Z,59.20
2022-09-09T14:10:54.363Z,59.90
2022-09-09T14:13:23.020Z,62.10
2022-09-09T14:15:51.722Z,63.70
2022-09-09T14:18:19.571Z,64.50
2022-09-09T14:20:47.462Z,64.70
2022-09-09T14:23:16.454Z,64.70
2022-09-09T14:25:45.791Z,65.80
2022-09-09T14:28:14.540Z,66.40
2022-09-09T14:30:43.496Z,67.10
2022-09-09T14:33:12.616Z,67.30
2022-09-09T14:35:42.043Z,68.30
2022-09-09T14:38:10.057Z,68.70
2022-09-09T14:40:38.286Z,68.80
2022-09-09T14:43:07.668Z,68.80
2022-09-09T14:45:38.311Z,69.10
2022-09-09T14:48:06.454Z,69.30
2022-09-09T14:50:35.876Z,69.60
2022-09-09T14:53:03.762Z,69.90
2022-09-09T14:55:32.459Z,70.00
2022-09-09T14:58:00.602Z,69.80
2022-09-09T15:00:29.839Z,69.80
2022-09-09T15:02:57.851Z,69.30
2022-09-09T15:05:26.153Z,69.50
2022-09-09T15:07:54.076Z,69.40
2022-09-09T15:10:22.036Z,69.20
2022-09-09T15:12:49.881Z,69.10
2022-09-09T15:15:18.363Z,69.00
2022-09-09T15:17:48.524Z,69.50
2022-09-09T15:20:17.657Z,69.90
2022-09-09T15:22:45.528Z,69.60
2022-09-09T15:25:13.984Z,69.20
2022-09-09T15:27:41.985Z,68.70
2022-09-09T15:30:10.967Z,67.70
2022-09-09T15:32:39.457Z,67.50
2022-09-09T15:35:09.389Z,67.80
2022-09-09T15:37:37.346Z,68.10
2022-09-09T15:40:05.662Z,67.80
2022-09-09T15:42:33.625Z,67.40
2022-09-09T15:45:02.272Z,67.70
2022-09-09T15:47:30.297Z,68.10
2022-09-09T15:49:58.185Z,68.10
2022-09-09T15:52:27.790Z,68.50
2022-09-09T15:54:55.862Z,68.90
2022-09-09T15:57:23.735Z,69.50
2022-09-09T15:59:51.796Z,70.00
2022-09-09T16:02:19.950Z,70.30
2022-09-09T16:04:47.798Z,70.60
2022-09-09T16:07:15.652Z,71.00
2022-09-09T16:09:45.391Z,70.80
2022-09-09T16:12:14.021Z,70.80
2022-09-09T16:14:42.117Z,71.00
2022-09-09T16:17:09.944Z,71.50
2022-09-09T16:19:38.108Z,71.80
2022-09-09T16:22:07.499Z,72.00
2022-09-09T16:24:35.397Z,72.10
2022-09-09T16:27:05.088Z,72.20
2022-09-09T16:29:33.100Z,72.20
2022-09-09T16:32:04.121Z,71.60
2022-09-09T16:34:34.480Z,71.00
2022-09-09T16:37:03.927Z,71.10
2022-09-09T16:39:31.968Z,70.80
2022-09-09T16:42:00.819Z,71.00
2022-09-09T16:44:30.938Z,71.30
2022-09-09T16:47:00.887Z,71.70
2022-09-09T16:49:30.657Z,71.80
2022-09-09T16:51:59.630Z,72.10
2022-09-09T16:54:27.919Z,72.00
2022-09-09T16:56:55.865Z,71.90
2022-09-09T16:59:24.169Z,72.00
2022-09-09T17:01:54.360Z,71.80
2022-09-09T17:04:24.788Z,72.00
2022-09-09T17:06:53.644Z,72.00
2022-09-09T17:09:23.458Z,72.00
2022-09-09T17:11:53.467Z,72.00
2022-09-09T17:14:23.123Z,72.30
2022-09-09T17:16:50.994Z,72.50
2022-09-09T17:19:20.619Z,72.70
2022-09-09T17:22:14.836Z,73.00
2022-09-09T17:24:39.282Z,73.50
2022-09-09T17:27:07.190Z,73.90
2022-09-09T17:29:36.744Z,74.30
2022-09-09T17:32:06.347Z,74.50
2022-09-09T17:34:35.966Z,75.30
2022-09-09T17:37:04.008Z,76.20
2022-09-09T17:39:31.915Z,77.50
2022-09-09T17:41:59.851Z,78.50
2022-09-09T17:44:29.920Z,79.10
2022-09-09T17:46:57.918Z,80.10
2022-09-09T17:49:25.870Z,80.90
2022-09-09T17:51:56.137Z,81.50
2022-09-09T17:54:24.155Z,81.60
2022-09-09T17:56:53.255Z,82.00
2022-09-09T17:59:21.286Z,82.40
2022-09-09T18:01:51.253Z,82.70
2022-09-09T18:07:41.674Z,82.80
2022-09-09T18:10:09.825Z,82.30
2022-09-09T18:12:37.761Z,82.40
2022-09-09T18:15:06.237Z,82.30
2022-09-09T18:17:35.187Z,82.30
2022-09-09T18:20:03.827Z,82.30
2022-09-09T18:22:32.290Z,82.20
2022-09-09T18:25:01.546Z,82.10
2022-09-09T18:27:30.090Z,82.10
2022-09-09T18:29:58.015Z,82.10
2022-09-09T18:32:26.938Z,82.10
2022-09-09T18:34:56.328Z,82.00
2022-09-09T18:37:24.168Z,82.40
2022-09-09T18:39:53.004Z,82.40
2022-09-09T18:42:22.235Z,82.50
2022-09-09T18:44:50.313Z,82.50
2022-09-09T18:47:18.664Z,82.20
2022-09-09T18:49:47.336Z,82.20
2022-09-09T18:52:15.363Z,82.00
2022-09-09T18:54:45.972Z,81.80
2022-09-09T18:57:14.003Z,81.70
2022-09-09T18:59:43.408Z,82.00
2022-09-09T19:02:12.692Z,82.30
2022-09-09T19:04:40.504Z,82.40
2022-09-09T19:07:08.450Z,82.60
2022-09-09T19:09:36.607Z,82.80
2022-09-09T19:12:06.293Z,82.90
2022-09-09T19:14:34.452Z,83.00
2022-09-09T19:17:03.865Z,83.00
2022-09-09T19:19:33.051Z,82.50
2022-09-09T19:22:01.716Z,82.70
2022-09-09T19:24:30.495Z,82.70
2022-09-09T19:27:01.750Z,82.70
2022-09-09T19:29:30.998Z,82.70
2022-09-09T19:32:36.817Z,82.60
2022-09-09T19:34:49.201Z,82.60
2022-09-09T19:37:18.663Z,82.60
2022-09-09T19:39:47.874Z,82.60
2022-09-09T19:42:16.348Z,82.70
2022-09-09T19:44:44.354Z,82.70
2022-09-09T19:47:14.510Z,82.70
2022-09-09T19:49:46.718Z,82.70
2022-09-09T19:52:17.376Z,82.80
2022-09-09T19:54:45.479Z,82.90
2022-09-09T19:57:13.735Z,83.10
2022-09-09T19:59:41.622Z,83.20
2022-09-09T20:02:10.925Z,83.20
2022-09-09T20:04:39.115Z,83.40
2022-09-09T20:07:07.383Z,83.50
2022-09-09T20:09:36.688Z,83.50
2022-09-09T20:12:04.854Z,83.50
2022-09-09T20:14:37.267Z,83.40
2022-09-09T20:17:07.279Z,83.40
2022-09-09T20:19:35.888Z,83.40
2022-09-09T20:22:03.904Z,83.40
2022-09-09T20:24:31.863Z,83.30
2022-09-09T20:27:01.336Z,83.40
2022-09-09T20:29:29.364Z,83.40
2022-09-09T20:31:57.473Z,83.50
2022-09-09T20:34:29.329Z,83.50
2022-09-09T20:36:59.430Z,83.60
2022-09-09T20:39:27.826Z,83.70
2022-09-09T20:41:57.128Z,83.70
2022-09-09T20:44:26.456Z,83.70
2022-09-09T20:46:57.021Z,83.90
2022-09-09T20:49:25.658Z,83.90
2022-09-09T20:51:54.324Z,83.90
2022-09-09T20:54:23.836Z,84.00
2022-09-09T20:56:52.666Z,84.00
2022-09-09T20:59:21.591Z,84.00
2022-09-09T21:01:51.558Z,84.00
2022-09-09T21:04:20.673Z,84.00
2022-09-09T21:06:49.574Z,84.00
2022-09-09T21:09:17.735Z,84.10
2022-09-09T21:11:47.196Z,84.10
2022-09-09T21:14:15.601Z,84.10
2022-09-09T21:16:43.712Z,84.20
2022-09-09T21:19:13.124Z,84.20
2022-09-09T21:21:41.032Z,84.10
2022-09-09T21:24:09.062Z,84.00
2022-09-09T21:26:37.709Z,84.00
2022-09-09T21:29:05.631Z,83.90
2022-09-09T21:31:33.546Z,83.90
2022-09-09T21:34:01.643Z,83.90
2022-09-09T21:36:31.289Z,83.90
2022-09-09T21:38:59.423Z,83.70
2022-09-09T21:41:28.066Z,83.70
2022-09-09T21:43:56.646Z,83.70
2022-09-09T21:46:28.100Z,83.70
2022-09-09T21:48:57.077Z,83.80
2022-09-09T21:51:25.603Z,83.80
2022-09-09T21:53:57.202Z,83.80
2022-09-09T21:56:25.644Z,83.70
2022-09-09T21:58:57.826Z,83.70
2022-09-09T22:01:26.319Z,83.70
2022-09-09T22:03:54.354Z,83.70
2022-09-09T22:06:22.290Z,83.70
2022-09-09T22:08:50.208Z,83.60
2022-09-09T22:11:20.548Z,83.70
2022-09-09T22:13:48.849Z,83.70
2022-09-09T22:16:19.031Z,83.60
2022-09-09T22:18:51.497Z,83.60
2022-09-09T22:21:20.391Z,83.50
2022-09-09T22:23:52.928Z,83.60
2022-09-09T22:26:22.500Z,83.70
2022-09-09T22:28:50.402Z,83.80
2022-09-09T22:31:18.690Z,83.70
2022-09-09T22:33:46.544Z,83.70
2022-09-09T22:36:14.360Z,83.70
2022-09-09T22:38:42.796Z,83.70
2022-09-09T22:41:11.243Z,83.60
2022-09-09T22:43:42.676Z,83.50
2022-09-09T22:46:10.719Z,83.50
2022-09-09T22:48:39.546Z,83.50
2022-09-09T22:51:08.493Z,83.40
2022-09-09T22:53:36.662Z,83.40
2022-09-09T22:56:06.037Z,83.40
2022-09-09T22:58:36.211Z,83.50
2022-09-09T23:01:11.332Z,83.70
2022-09-09T23:03:41.185Z,83.60
2022-09-09T23:06:15.474Z,83.60
2022-09-09T23:08:43.704Z,83.60
2022-09-09T23:11:13.635Z,83.50
2022-09-09T23:13:43.130Z,83.60
2022-09-09T23:16:13.618Z,83.40
2022-09-09T23:18:41.643Z,83.30
2022-09-09T23:21:11.281Z,83.10
2022-09-09T23:23:40.593Z,83.10
2022-09-09T23:26:09.324Z,83.20
2022-09-09T23:28:38.446Z,83.10
2022-09-09T23:31:09.895Z,83.10
2022-09-09T23:33:39.707Z,83.20
2022-09-09T23:36:08.830Z,83.20
2022-09-09T23:38:40.638Z,83.30
2022-09-09T23:41:10.646Z,83.40
2022-09-09T23:43:39.652Z,83.60
2022-09-09T23:46:08.695Z,83.70
2022-09-09T23:48:39.092Z,83.90
2022-09-09T23:51:10.507Z,84.00
2022-09-09T23:53:38.368Z,84.00
2022-09-09T23:56:06.381Z,83.90
2022-09-09T23:58:34.777Z,83.90
